createdAt,value
2023-03-05T00:02:14.154Z,99556.75
2023-03-05T00:04:41.154Z,99542.78
2023-03-05T00:07:12.363Z,99551.00
2023-03-05T00:09:39.444Z,99561.66
2023-03-05T00:12:09.017Z,99553.16
2023-03-05T00:14:35.951Z,99551.97
2023-03-05T00:17:03.127Z,99559.41
2023-03-05T00:19:30.633Z,99557.25
2023-03-05T00:22:00.258Z,99549.50
2023-03-05T00:24:27.142Z,99554.22
2023-03-05T00:26:54.844Z,99547.97
2023-03-05T00:29:23.008Z,99537.31
2023-03-05T00:31:50.467Z,99545.06
2023-03-05T00:34:19.172Z,99547.03
2023-03-05T00:36:53.434Z,99540.53
2023-03-05T00:39:21.014Z,99526.56
2023-03-05T00:41:48.843Z,99528.06
2023-03-05T00:44:15.754Z,99516.88
2023-03-05T00:46:43.290Z,99524.59
2023-03-05T00:49:12.577Z,99523.16
2023-03-05T00:51:40.980Z,99513.00
2023-03-05T00:54:07.825Z,99508.28
2023-03-05T00:56:35.102Z,99507.03
2023-03-05T00:59:02.334Z,99505.06
2023-03-05T01:01:29.850Z,99513.81
2023-03-05T01:03:57.601Z,99509.09
2023-03-05T01:06:27.164Z,99496.38
2023-03-05T01:08:54.593Z,99500.13
2023-03-05T01:11:22.147Z,99498.44
2023-03-05T01:13:49.139Z,99489.75
2023-03-05T01:16:16.699Z,99481.06
2023-03-05T01:18:43.649Z,99489.00
2023-03-05T01:21:11.154Z,99487.03
2023-03-05T01:23:38.235Z,99491.53
2023-03-05T01:26:05.756Z,99487.31
2023-03-05T01:28:35.484Z,99495.03
2023-03-05T01:31:02.753Z,99492.09
2023-03-05T01:33:29.672Z,99492.00
2023-03-05T01:35:56.941Z,99494.28
2023-03-05T01:38:24.051Z,99485.78
2023-03-05T01:40:51.284Z,99480.31
2023-03-05T01:43:23.582Z,99477.38
2023-03-05T01:46:09.670Z,99480.59
2023-03-05T01:48:36.618Z,99480.78
2023-03-05T01:51:03.985Z,99493.34
2023-03-05T01:53:31.231Z,99489.28
2023-03-05T01:55:58.559Z,99487.59
2023-03-05T01:58:25.541Z,99486.81
2023-03-05T02:00:53.770Z,99480.06
2023-03-05T02:03:22.798Z,99485.03
2023-03-05T02:05:50.322Z,99483.03
2023-03-05T02:08:18.614Z,99476.06
2023-03-05T02:10:48.117Z,99476.06
2023-03-05T02:13:19.093Z,99477.56
2023-03-05T02:15:47.738Z,99470.88
2023-03-05T02:18:14.668Z,99469.66
2023-03-05T02:20:56.968Z,99470.13
2023-03-05T02:23:29.087Z,99476.06
2023-03-05T02:25:56.679Z,99473.81
2023-03-05T02:28:30.509Z,99453.91
2023-03-05T02:30:59.880Z,99459.84
2023-03-05T02:33:26.968Z,99462.41
2023-03-05T02:35:54.256Z,99448.91
2023-03-05T02:38:22.672Z,99452.41
2023-03-05T02:40:52.284Z,99437.00
2023-03-05T02:43:21.602Z,99449.47
2023-03-05T02:45:48.855Z,99445.69
2023-03-05T02:48:16.585Z,99449.94
2023-03-05T02:50:45.048Z,99442.22
2023-03-05T02:53:15.438Z,99441.47
2023-03-05T02:55:46.075Z,99429.28
2023-03-05T02:58:12.896Z,99437.97
2023-03-05T03:00:42.848Z,99430.81
2023-03-05T03:03:11.661Z,99431.34
2023-03-05T03:05:38.823Z,99428.13
2023-03-05T03:08:05.847Z,99428.13
2023-03-05T03:10:33.351Z,99435.88
2023-03-05T03:13:00.443Z,99435.88
2023-03-05T03:15:27.664Z,99430.41
2023-03-05T03:17:54.983Z,99423.19
2023-03-05T03:20:22.611Z,99418.50
2023-03-05T03:22:49.531Z,99415.47
2023-03-05T03:25:18.325Z,99416.72
2023-03-05T03:27:45.217Z,99428.88
2023-03-05T03:30:13.711Z,99413.50
2023-03-05T03:32:40.625Z,99418.50
2023-03-05T03:35:08.101Z,99409.03
2023-03-05T03:37:35.194Z,99411.25
2023-03-05T03:40:02.415Z,99413.03
2023-03-05T03:42:31.614Z,99407.75
2023-03-05T03:45:02.575Z,99412.47
2023-03-05T03:47:30.429Z,99414.91
2023-03-05T03:49:58.862Z,99413.97
2023-03-05T03:52:26.534Z,99416.44
2023-03-05T03:54:55.843Z,99415.69
2023-03-05T03:57:23.100Z,99415.88
2023-03-05T03:59:51.208Z,99415.69
2023-03-05T04:02:18.311Z,99418.34
2023-03-05T04:04:45.647Z,99407.09
2023-03-05T04:07:12.706Z,99414.59
2023-03-05T04:09:40.349Z,99415.06
2023-03-05T04:12:07.338Z,99410.03
2023-03-05T04:14:34.601Z,99404.38
2023-03-05T04:17:01.495Z,99405.34
2023-03-05T04:19:31.051Z,99400.63
2023-03-05T04:21:58.881Z,99401.09
2023-03-05T04:24:26.200Z,99398.09
2023-03-05T04:26:53.140Z,99409.50
2023-03-05T04:29:22.838Z,99399.31
2023-03-05T04:31:49.752Z,99399.50
2023-03-05T04:34:16.944Z,99393.56
2023-03-05T04:36:44.777Z,99393.81
2023-03-05T04:39:12.051Z,99378.19
2023-03-05T04:41:38.985Z,99389.59
2023-03-05T04:44:06.676Z,99388.34
2023-03-05T04:46:33.562Z,99383.66
2023-03-05T04:49:01.038Z,99381.97
2023-03-05T04:51:27.933Z,99384.97
2023-03-05T04:53:57.801Z,99384.97
2023-03-05T04:56:24.869Z,99373.75
2023-03-05T04:58:52.453Z,99368.00
2023-03-05T05:01:19.493Z,99370.03
2023-03-05T05:03:47.012Z,99369.78
2023-03-05T05:06:14.129Z,99369.28
2023-03-05T05:08:41.359Z,99368.56
2023-03-05T05:11:08.474Z,99366.56
2023-03-05T05:13:35.649Z,99364.28
2023-03-05T05:16:02.757Z,99362.31
2023-03-05T05:18:30.044Z,99368.81
2023-03-05T05:20:56.939Z,99364.28
2023-03-05T05:23:24.294Z,99364.56
2023-03-05T05:25:58.158Z,99363.81
2023-03-05T05:28:27.846Z,99371.09
2023-03-05T05:30:55.045Z,99369.38
2023-03-05T05:33:22.938Z,99372.88
2023-03-05T05:35:50.352Z,99369.84
2023-03-05T05:38:17.704Z,99373.81
2023-03-05T05:40:44.692Z,99375.41
2023-03-05T05:43:11.877Z,99369.91
2023-03-05T05:45:39.005Z,99363.41
2023-03-05T05:48:06.672Z,99371.91
2023-03-05T05:50:33.574Z,99376.59
2023-03-05T05:53:00.771Z,99385.03
2023-03-05T05:55:27.796Z,99393.78
2023-03-05T05:57:55.049Z,99392.09
2023-03-05T06:00:22.213Z,99389.06
2023-03-05T06:02:49.743Z,99391.81
2023-03-05T06:05:16.656Z,99382.09
2023-03-05T06:07:43.914Z,99389.06
2023-03-05T06:10:11.215Z,99389.81
2023-03-05T06:12:38.595Z,99381.88
2023-03-05T06:15:08.364Z,99386.41
2023-03-05T06:17:35.749Z,99390.16
2023-03-05T06:20:04.573Z,99385.19
2023-03-05T06:22:31.746Z,99385.66
2023-03-05T06:24:58.607Z,99388.66
2023-03-05T06:27:26.213Z,99379.22
2023-03-05T06:29:54.382Z,99386.53
2023-03-05T06:32:21.666Z,99378.53
2023-03-05T06:34:48.849Z,99377.84
2023-03-05T06:37:16.121Z,99373.13
2023-03-05T06:39:43.202Z,99380.38
2023-03-05T06:42:10.568Z,99382.38
2023-03-05T06:44:41.030Z,99376.91
2023-03-05T06:47:10.601Z,99375.94
2023-03-05T06:49:38.293Z,99383.66
2023-03-05T06:52:06.371Z,99379.75
2023-03-05T06:54:33.362Z,99376.28
2023-03-05T06:57:00.819Z,99374.81
2023-03-05T06:59:27.676Z,99370.59
2023-03-05T07:01:57.448Z,99373.13
2023-03-05T07:04:24.909Z,99380.59
2023-03-05T07:06:52.130Z,99368.94
2023-03-05T07:09:18.995Z,99379.63
2023-03-05T07:11:46.248Z,99372.44
2023-03-05T07:14:15.616Z,99379.41
2023-03-05T07:16:42.915Z,99380.25
2023-03-05T07:19:11.147Z,99371.09
2023-03-05T07:21:40.029Z,99383.41
2023-03-05T07:24:08.133Z,99371.59
2023-03-05T07:26:35.562Z,99380.59
2023-03-05T07:29:03.084Z,99374.69
2023-03-05T07:31:33.329Z,99376.00
2023-03-05T07:34:01.562Z,99373.75
2023-03-05T07:36:29.020Z,99379.50
2023-03-05T07:38:56.036Z,99380.72
2023-03-05T07:41:23.833Z,99366.47
2023-03-05T07:43:52.654Z,99365.50
2023-03-05T07:46:21.691Z,99369.97
2023-03-05T07:48:48.806Z,99367.72
2023-03-05T07:51:17.491Z,99363.00
2023-03-05T07:53:45.079Z,99359.53
2023-03-05T07:56:12.654Z,99357.59
2023-03-05T07:58:39.870Z,99352.09
2023-03-05T08:01:13.414Z,99364.09
2023-03-05T08:03:41.091Z,99363.13
2023-03-05T08:06:11.688Z,99363.16
2023-03-05T08:08:40.636Z,99353.75
2023-03-05T08:11:12.635Z,99354.31
2023-03-05T08:13:40.073Z,99350.09
2023-03-05T08:16:18.013Z,99352.56
2023-03-05T08:18:45.496Z,99357.56
2023-03-05T08:21:22.724Z,99354.81
2023-03-05T08:23:49.739Z,99354.53
2023-03-05T08:26:18.285Z,99352.84
2023-03-05T08:28:45.214Z,99349.44
2023-03-05T08:31:13.385Z,99356.66
2023-03-05T08:33:40.551Z,99360.41
2023-03-05T08:36:11.792Z,99353.25
2023-03-05T08:38:43.447Z,99347.06
2023-03-05T08:41:10.793Z,99346.31
2023-03-05T08:43:41.075Z,99352.28
2023-03-05T08:46:08.819Z,99347.06
2023-03-05T08:48:35.991Z,99355.88
2023-03-05T08:51:29.666Z,99348.38
2023-03-05T08:53:59.084Z,99354.34
2023-03-05T08:56:28.596Z,99347.91
2023-03-05T08:58:55.579Z,99339.44
2023-03-05T09:01:24.176Z,99343.19
2023-03-05T09:03:54.364Z,99335.41
2023-03-05T09:06:21.687Z,99329.94
2023-03-05T09:08:48.665Z,99341.06
2023-03-05T09:11:16.085Z,99344.09
2023-03-05T09:13:43.035Z,99341.88
2023-03-05T09:16:15.234Z,99335.34
2023-03-05T09:18:42.513Z,99344.91
2023-03-05T09:21:11.840Z,99340.44
2023-03-05T09:23:39.217Z,99336.72
2023-03-05T09:26:07.995Z,99350.72
2023-03-05T09:28:34.977Z,99336.72
2023-03-05T09:31:03.956Z,99343.47
2023-03-05T09:33:31.880Z,99328.47
2023-03-05T09:35:59.563Z,99328.25
2023-03-05T09:38:26.732Z,99333.25
2023-03-05T09:41:07.752Z,99331.72
2023-03-05T09:43:39.777Z,99327.19
2023-03-05T09:46:24.943Z,99324.69
2023-03-05T09:48:58.455Z,99335.69
2023-03-05T09:51:28.466Z,99327.69
2023-03-05T09:54:03.474Z,99335.19
2023-03-05T09:56:41.483Z,99332.19
2023-03-05T09:59:31.186Z,99323.66
2023-03-05T10:02:12.864Z,99322.19
2023-03-05T10:04:45.907Z,99319.91
2023-03-05T10:07:22.238Z,99333.63
2023-03-05T10:09:52.036Z,99326.53
2023-03-05T10:12:28.496Z,99324.19
2023-03-05T10:14:58.291Z,99318.97
2023-03-05T10:17:35.615Z,99313.81
2023-03-05T10:20:26.071Z,99311.38
2023-03-05T10:23:00.010Z,99305.69
2023-03-05T10:25:39.504Z,99298.47
2023-03-05T10:28:20.156Z,99304.00
2023-03-05T10:31:13.113Z,99301.25
2023-03-05T10:33:51.878Z,99299.44
2023-03-05T10:36:46.224Z,99292.41
2023-03-05T10:39:32.744Z,99298.63
2023-03-05T10:42:12.014Z,99282.03
2023-03-05T10:44:47.531Z,99282.22
2023-03-05T10:47:30.343Z,99277.63
2023-03-05T10:49:58.725Z,99273.16
2023-03-05T10:52:30.191Z,99272.09
2023-03-05T10:55:00.105Z,99267.50
2023-03-05T10:57:28.390Z,99266.44
2023-03-05T11:00:02.354Z,99268.25
2023-03-05T11:02:29.789Z,99269.75
2023-03-05T11:04:59.864Z,99263.13
2023-03-05T11:07:26.897Z,99260.94
2023-03-05T11:10:00.324Z,99257.94
2023-03-05T11:12:28.944Z,99260.47
2023-03-05T11:15:02.455Z,99257.50
2023-03-05T11:17:29.396Z,99257.47
2023-03-05T11:19:58.027Z,99257.97
2023-03-05T11:22:26.046Z,99251.75
2023-03-05T11:25:14.865Z,99249.25
2023-03-05T11:27:50.652Z,99241.75
2023-03-05T11:30:26.257Z,99242.50
2023-03-05T11:33:12.600Z,99238.75
2023-03-05T11:35:42.371Z,99243.25
2023-03-05T11:38:25.010Z,99239.25
2023-03-05T11:40:53.870Z,99237.50
2023-03-05T11:43:22.124Z,99235.75
2023-03-05T11:45:55.139Z,99235.75
2023-03-05T11:48:27.479Z,99228.00
2023-03-05T11:51:01.445Z,99223.25
2023-03-05T11:53:37.317Z,99227.00
2023-03-05T11:56:19.245Z,99224.25
2023-03-05T11:59:16.103Z,99224.25
2023-03-05T12:01:46.342Z,99226.75
2023-03-05T12:04:13.741Z,99223.47
2023-03-05T12:06:44.582Z,99219.47
2023-03-05T12:09:17.958Z,99224.25
2023-03-05T12:11:46.073Z,99222.97
2023-03-05T12:14:19.904Z,99226.47
2023-03-05T12:16:51.500Z,99224.72
2023-03-05T12:19:35.837Z,99228.44
2023-03-05T12:22:04.698Z,99236.91
2023-03-05T12:24:34.224Z,99232.16
2023-03-05T12:27:04.653Z,99223.16
2023-03-05T12:29:41.583Z,99231.38
2023-03-05T12:32:34.341Z,99217.41
2023-03-05T12:35:08.678Z,99229.41
2023-03-05T12:37:36.043Z,99233.88
2023-03-05T12:40:08.854Z,99215.91
2023-03-05T12:42:39.500Z,99220.63
2023-03-05T12:45:12.884Z,99212.91
2023-03-05T12:47:41.358Z,99208.66
2023-03-05T12:50:27.080Z,99215.88
2023-03-05T12:52:56.103Z,99216.66
2023-03-05T12:55:24.615Z,99212.41
2023-03-05T12:58:12.081Z,99207.72
2023-03-05T13:00:40.107Z,99208.19
2023-03-05T13:03:12.254Z,99203.22
2023-03-05T13:05:39.528Z,99201.00
2023-03-05T13:08:24.326Z,99191.50
2023-03-05T13:10:57.485Z,99206.22
2023-03-05T13:13:29.739Z,99196.50
2023-03-05T13:15:57.985Z,99200.25
2023-03-05T13:18:31.535Z,99195.25
2023-03-05T13:21:05.129Z,99191.72
2023-03-05T13:23:33.734Z,99189.72
2023-03-05T13:26:20.766Z,99198.22
2023-03-05T13:29:04.272Z,99189.22
2023-03-05T13:31:32.163Z,99188.47
2023-03-05T13:34:21.237Z,99191.22
2023-03-05T13:37:00.423Z,99195.22
2023-03-05T13:39:36.002Z,99186.72
2023-03-05T13:42:06.302Z,99181.00
2023-03-05T13:44:36.841Z,99180.75
2023-03-05T13:47:11.294Z,99181.53
2023-03-05T13:49:40.545Z,99179.78
2023-03-05T13:52:07.903Z,99180.31
2023-03-05T13:54:35.983Z,99180.03
2023-03-05T13:57:06.127Z,99170.56
2023-03-05T13:59:35.246Z,99168.81
2023-03-05T14:02:16.084Z,99168.78
2023-03-05T14:04:44.997Z,99161.81
2023-03-05T14:07:25.139Z,99159.06
2023-03-05T14:09:52.896Z,99155.56
2023-03-05T14:12:35.559Z,99158.06
2023-03-05T14:15:07.081Z,99157.06
2023-03-05T14:17:42.400Z,99150.31
2023-03-05T14:20:12.071Z,99152.59
2023-03-05T14:22:41.491Z,99147.84
2023-03-05T14:25:30.253Z,99141.84
2023-03-05T14:27:58.402Z,99136.84
2023-03-05T14:30:27.329Z,99133.09
2023-03-05T14:32:57.850Z,99138.09
2023-03-05T14:35:27.342Z,99136.59
2023-03-05T14:37:57.559Z,99130.34
2023-03-05T14:40:34.677Z,99135.09
2023-03-05T14:43:11.232Z,99129.13
2023-03-05T14:45:40.484Z,99126.13
2023-03-05T14:48:09.385Z,99119.63
2023-03-05T14:50:45.188Z,99126.38
2023-03-05T14:53:16.456Z,99129.38
2023-03-05T14:55:49.269Z,99128.38
2023-03-05T14:58:22.950Z,99112.41
2023-03-05T15:00:51.992Z,99116.88
2023-03-05T15:03:22.892Z,99115.41
2023-03-05T15:05:54.489Z,99117.88
2023-03-05T15:08:30.456Z,99111.66
2023-03-05T15:10:59.219Z,99105.66
2023-03-05T15:13:26.991Z,99113.13
2023-03-05T15:15:55.997Z,99110.63
2023-03-05T15:18:24.836Z,99104.16
2023-03-05T15:20:53.567Z,99102.41
2023-03-05T15:23:24.820Z,99099.94
2023-03-05T15:25:58.163Z,99100.41
2023-03-05T15:28:25.481Z,99102.16
2023-03-05T15:30:53.987Z,99098.41
2023-03-05T15:33:23.573Z,99105.16
2023-03-05T15:35:51.997Z,99100.91
2023-03-05T15:38:20.023Z,99097.66
2023-03-05T15:40:51.490Z,99104.13
2023-03-05T15:43:20.219Z,99098.16
2023-03-05T15:45:48.413Z,99094.94
2023-03-05T15:48:16.429Z,99091.66
2023-03-05T15:50:45.420Z,99094.91
2023-03-05T15:53:16.117Z,99091.66
2023-03-05T15:55:47.945Z,99092.16
2023-03-05T15:58:17.254Z,99087.69
2023-03-05T16:00:47.950Z,99091.66
2023-03-05T16:03:15.777Z,99093.66
2023-03-05T16:05:44.859Z,99087.41
2023-03-05T16:08:13.510Z,99091.66
2023-03-05T16:10:42.112Z,99094.88
2023-03-05T16:13:15.636Z,99088.91
2023-03-05T16:15:44.543Z,99094.13
2023-03-05T16:18:14.752Z,99096.88
2023-03-05T16:20:43.457Z,99086.16
2023-03-05T16:23:11.535Z,99083.66
2023-03-05T16:25:44.914Z,99090.13
2023-03-05T16:28:12.904Z,99084.63
2023-03-05T16:30:44.072Z,99087.38
2023-03-05T16:33:11.820Z,99090.59
2023-03-05T16:35:41.582Z,99090.59
2023-03-05T16:38:09.898Z,99095.09
2023-03-05T16:41:06.342Z,99086.34
2023-03-05T16:43:26.062Z,99089.34
2023-03-05T16:45:54.272Z,99088.84
2023-03-05T16:48:24.209Z,99089.34
2023-03-05T16:50:52.280Z,99087.09
2023-03-05T16:53:20.772Z,99087.84
2023-03-05T16:55:49.124Z,99084.56
2023-03-05T16:58:20.347Z,99094.06
2023-03-05T17:00:49.896Z,99084.81
2023-03-05T17:03:18.352Z,99094.56
2023-03-05T17:05:48.745Z,99087.56
2023-03-05T17:08:17.485Z,99083.34
2023-03-05T17:10:45.956Z,99081.84
2023-03-05T17:13:14.047Z,99092.31
2023-03-05T17:18:12.914Z,99094.75
2023-03-05T17:20:41.389Z,99088.53
2023-03-05T17:23:10.283Z,99092.53
2023-03-05T17:25:39.180Z,99089.25
2023-03-05T17:28:06.663Z,99102.69
2023-03-05T17:30:37.541Z,99098.47
2023-03-05T17:33:09.078Z,99091.97
2023-03-05T17:35:39.798Z,99081.50
2023-03-05T17:38:11.507Z,99085.75
2023-03-05T17:40:40.634Z,99084.25
2023-03-05T17:43:14.164Z,99077.03
2023-03-05T17:45:43.486Z,99080.50
2023-03-05T17:48:15.726Z,99079.53
2023-03-05T17:50:45.660Z,99088.25
2023-03-05T17:53:18.804Z,99081.25
2023-03-05T17:55:48.549Z,99097.44
2023-03-05T17:58:16.743Z,99092.22
2023-03-05T18:00:49.281Z,99104.16
2023-03-05T18:03:17.818Z,99106.16
2023-03-05T18:05:46.520Z,99109.13
2023-03-05T18:08:17.034Z,99105.16
2023-03-05T18:10:45.734Z,99097.66
2023-03-05T18:13:13.903Z,99103.38
2023-03-05T18:15:48.198Z,99098.88
2023-03-05T18:18:20.381Z,99094.41
2023-03-05T18:20:49.883Z,99098.34
2023-03-05T18:23:19.497Z,99094.13
2023-03-05T18:25:48.190Z,99089.91
2023-03-05T18:28:16.268Z,99094.13
2023-03-05T18:30:45.592Z,99096.88
2023-03-05T18:33:20.513Z,99086.41
2023-03-05T18:35:54.084Z,99092.66
2023-03-05T18:38:23.554Z,99089.63
2023-03-05T18:40:53.278Z,99086.41
2023-03-05T18:43:22.726Z,99086.91
2023-03-05T18:45:52.693Z,99077.91
2023-03-05T18:48:21.300Z,99077.16
2023-03-05T18:50:53.954Z,99081.91
2023-03-05T18:53:23.084Z,99074.19
2023-03-05T18:55:53.368Z,99079.41
2023-03-05T18:58:22.899Z,99084.63
2023-03-05T19:00:52.833Z,99084.13
2023-03-05T19:03:23.166Z,99076.66
2023-03-05T19:05:53.570Z,99078.41
2023-03-05T19:08:22.141Z,99075.41
2023-03-05T19:10:53.021Z,99075.16
2023-03-05T19:13:40.299Z,99069.41
2023-03-05T19:16:11.519Z,99076.91
2023-03-05T19:18:47.522Z,99070.41
2023-03-05T19:21:15.901Z,99060.69
2023-03-05T19:23:44.406Z,99063.69
2023-03-05T19:26:14.309Z,99069.19
2023-03-05T19:28:42.393Z,99072.38
2023-03-05T19:31:10.846Z,99076.63
2023-03-05T19:33:42.529Z,99066.91
2023-03-05T19:36:12.725Z,99076.09
2023-03-05T19:38:52.268Z,99080.59
2023-03-05T19:41:23.559Z,99076.59
2023-03-05T19:43:58.025Z,99068.38
2023-03-05T19:46:26.755Z,99065.66
2023-03-05T19:48:56.495Z,99066.91
2023-03-05T19:51:26.779Z,99067.13
2023-03-05T19:53:57.825Z,99069.63
2023-03-05T19:56:27.003Z,99071.88
2023-03-05T19:58:56.164Z,99071.88
2023-03-05T20:01:27.478Z,99061.41
2023-03-05T20:03:57.908Z,99069.38
2023-03-05T20:06:29.146Z,99069.09
2023-03-05T20:09:00.855Z,99074.88
2023-03-05T20:11:34.520Z,99075.13
2023-03-05T20:14:05.779Z,99072.13
2023-03-05T20:16:39.630Z,99070.59
2023-03-05T20:19:08.976Z,99063.63
2023-03-05T20:21:40.269Z,99054.41
2023-03-05T20:24:14.071Z,99058.38
2023-03-05T20:26:43.925Z,99057.38
2023-03-05T20:29:14.267Z,99056.13
2023-03-05T20:31:48.659Z,99053.91
2023-03-05T20:34:23.446Z,99048.41
2023-03-05T20:36:52.701Z,99051.16
2023-03-05T20:39:21.286Z,99045.91
2023-03-05T20:41:49.912Z,99047.66
2023-03-05T20:44:18.185Z,99054.34
2023-03-05T20:46:59.681Z,99046.13
2023-03-05T20:49:27.999Z,99047.41
2023-03-05T20:52:00.547Z,99045.91
2023-03-05T20:54:30.631Z,99044.66
2023-03-05T20:56:59.905Z,99042.41
2023-03-05T20:59:29.534Z,99040.94
2023-03-05T21:01:59.035Z,99044.88
2023-03-05T21:04:26.662Z,99037.16
2023-03-05T21:06:54.773Z,99037.91
2023-03-05T21:09:25.170Z,99034.91
2023-03-05T21:11:53.678Z,99033.41
2023-03-05T21:14:21.939Z,99030.44
2023-03-05T21:16:51.232Z,99027.44
2023-03-05T21:19:18.875Z,99034.13
2023-03-05T21:21:46.828Z,99026.41
2023-03-05T21:24:15.669Z,99016.22
2023-03-05T21:26:43.700Z,99013.97
2023-03-05T21:29:11.353Z,99011.94
2023-03-05T21:31:39.912Z,98999.50
2023-03-05T21:34:08.767Z,99009.22
2023-03-05T21:36:37.362Z,99006.22
2023-03-05T21:39:04.558Z,99009.22
2023-03-05T21:41:32.678Z,99006.47
2023-03-05T21:44:04.202Z,98999.00
2023-03-05T21:46:31.769Z,99004.69
2023-03-05T21:48:59.005Z,98994.72
2023-03-05T21:51:33.940Z,98987.78
2023-03-05T21:54:01.094Z,98994.72
2023-03-05T21:56:31.155Z,98990.50
2023-03-05T21:59:01.396Z,98995.97
2023-03-05T22:01:29.361Z,98989.50
2023-03-05T22:03:56.484Z,98986.75
2023-03-05T22:06:23.857Z,98975.53
2023-03-05T22:08:50.789Z,98974.06
2023-03-05T22:11:19.284Z,98983.50
2023-03-05T22:13:46.750Z,98974.53
2023-03-05T22:16:21.357Z,98973.78
2023-03-05T22:18:48.291Z,98970.28
2023-03-05T22:21:20.301Z,98970.56
2023-03-05T22:23:47.660Z,98975.78
2023-03-05T22:26:15.119Z,98968.31
2023-03-05T22:28:42.695Z,98967.56
2023-03-05T22:31:10.528Z,98970.28
2023-03-05T22:33:38.093Z,98966.34
2023-03-05T22:36:09.903Z,98966.06
2023-03-05T22:38:36.951Z,98969.06
2023-03-05T22:41:07.288Z,98969.56
2023-03-05T22:43:34.598Z,98956.34
2023-03-05T22:46:08.839Z,98954.38
2023-03-05T22:48:35.857Z,98950.88
2023-03-05T22:51:03.114Z,98954.88
2023-03-05T22:53:30.273Z,98948.41
2023-03-05T22:55:57.834Z,98953.88
2023-03-05T22:58:24.832Z,98942.94
2023-03-05T23:00:52.051Z,98953.88
2023-03-05T23:03:19.031Z,98947.91
2023-03-05T23:05:46.561Z,98948.94
2023-03-05T23:08:13.692Z,98937.00
2023-03-05T23:10:40.985Z,98938.25
2023-03-05T23:13:07.947Z,98935.00
2023-03-05T23:15:36.668Z,98945.47
2023-03-05T23:18:04.611Z,98942.22
2023-03-05T23:20:33.202Z,98938.28
2023-03-05T23:23:00.873Z,98935.03
2023-03-05T23:25:30.016Z,98939.53
2023-03-05T23:27:58.308Z,98942.00
2023-03-05T23:30:26.966Z,98938.28
2023-03-05T23:32:56.802Z,98942.47
2023-03-05T23:35:25.992Z,98934.75
2023-03-05T23:37:56.225Z,98928.28
2023-03-05T23:40:24.821Z,98928.53
2023-03-05T23:42:52.029Z,98930.06
2023-03-05T23:45:22.565Z,98930.06
2023-03-05T23:47:50.224Z,98933.28
2023-03-05T23:50:30.579Z,98932.31
2023-03-05T23:53:00.020Z,98922.41
2023-03-05T23:55:33.691Z,98933.88
2023-03-05T23:58:00.749Z,98932.91
